Covington, MI (49919)

9:33 AM EST on January 28, 2015 (GMT -0500)
APRSWXNET L Anse MI US | Change Station
CLOSE
Current Station
Personal Weather Station
Location: L'Anse, MI
Elevation: 882 ft
Nearby Weather Stations

Elev 882 ft 46.75 °N, 88.43 °W | Updated 37 minutes ago

Overcast
Overcast
24 °F
Feels Like 24 °F
N
3
Wind Variable Wind from SSE
Gusts 0.0 mph

Today
High -- | Low -- °F
--% Chance of Precip.
Yesterday
High -- | Low -- °F
Precip. -- in
8:22 AM 5:51 PM
Waxing Gibbous, 65% visible
Pressure 30.08 in
Visibility 2.5 miles
Clouds Overcast 500 ft
Windchill 24 °F
Dew Point 20 °F
Humidity 84%
Rainfall -999.00 in
Snow Depth Not available.
UV 0 out of 12
Pollen .10 out of 12
Air Quality Not available.
Flu Activity Not available.
METAR KLNL 281415Z AUTO 19007KT 2 1/2SM BR OVC005 M05/M05 A3008 RMK AO2 T10481054

More Conditions Fewer Conditions

Pressure 30.08 in
Visibility 2.5 miles
Clouds Overcast 500 ft
Windchill 24 °F
Dew Point 20 °F
Humidity 84%
Rainfall -999.00 in
Snow Depth Not available.
UV 0 out of 12
Pollen .10 out of 12
Air Quality Not available.
Flu Activity Not available.
METAR KLNL 281415Z AUTO 19007KT 2 1/2SM BR OVC005 M05/M05 A3008 RMK AO2 T10481054

More Conditions Fewer Conditions

10-Day Weather Forecast

Almanac

Astronomy

Jan. 28, 2015 Rise Set
Actual Time
Civil Twilight
Nautical Twilight
Astronomical Twilight
Moon
Length of Visible Light
Length of Day
Tomorrow will be .
, % of the Moon is Illuminated

Today's Extremes

State Highs State Lows

Community

WunderPhotos

Upload Photos

1,791,156 photos uploaded!

WunderBlogs® & News

Nearby

Air Quality

  Air Quality AQ Index Pollutant
Not available.

Snow Depth

Station Depth Elevation

Earthquake Activity

City Distance Mag. Time & Date
Minimum magnitude displayed is 2.5.

Coastal Water Temperatures

Place Temperature

Nearby Weather Stations